Wetterdaten: Woche 30.09.02 - 06.10.02 (KW40)
Datum Zeit Temperatur Luftfeuchte Luftdruck Regenmenge Wind Richtung Taupunkt Windchill
30.09.2002 00:00 4.1 C 96 % 1027.0 hPa 0.0 l/m 1.0 km/h (0 Bft) O-SO 3.5 C 4.1 C
30.09.2002 01:00 3.6 C 99 % 1027.3 hPa 0.0 l/m 2.4 km/h (1 Bft) O-SO 3.4 C 3.1 C
30.09.2002 02:00 3.0 C 99 % 1027.3 hPa 0.0 l/m 3.5 km/h (1 Bft) O-SO 2.8 C 2.2 C
30.09.2002 03:00 2.4 C 100 % 1027.3 hPa 0.0 l/m 0.7 km/h (0 Bft) O-SO 2.3 C 2.3 C
30.09.2002 04:00 1.8 C 100 % 1027.3 hPa 0.0 l/m 1.0 km/h (0 Bft) O-SO 1.8 C 1.6 C
30.09.2002 05:00 1.3 C 100 % 1027.3 hPa 0.0 l/m 1.1 km/h (1 Bft) O-SO 1.3 C 1.2 C
30.09.2002 06:00 0.8 C 100 % 1027.3 hPa 0.0 l/m 2.0 km/h (1 Bft) O-SO 0.8 C 0.4 C
30.09.2002 07:00 0.7 C 100 % 1027.3 hPa 0.0 l/m 0.3 km/h (0 Bft) O-SO 0.7 C 0.7 C
30.09.2002 08:00 2.3 C 100 % 1028.2 hPa 0.0 l/m 0.0 km/h (0 Bft) N 2.3 C 2.3 C
30.09.2002 09:00 3.5 C 100 % 1028.4 hPa 0.0 l/m 0.5 km/h (0 Bft) W-NW 3.5 C 3.4 C
30.09.2002 10:00 5.3 C 95 % 1028.4 hPa 0.0 l/m 0.4 km/h (0 Bft) W-NW 4.5 C 5.3 C
30.09.2002 11:00 8.8 C 75 % 1027.4 hPa 0.0 l/m 1.6 km/h (1 Bft) W-NW 4.6 C 8.6 C
30.09.2002 12:00 11.3 C 67 % 1027.3 hPa 0.0 l/m 1.4 km/h (1 Bft) W-NW 5.5 C 11.3 C
30.09.2002 13:00 13.7 C 62 % 1026.4 hPa 0.0 l/m 3.5 km/h (1 Bft) O-SO 6.5 C 13.7 C
30.09.2002 14:00 15.5 C 58 % 1025.8 hPa 0.0 l/m 3.1 km/h (1 Bft) O-SO 7.1 C 15.5 C
30.09.2002 15:00 16.8 C 57 % 1025.3 hPa 0.0 l/m 3.1 km/h (1 Bft) O-SO 8.3 C 16.8 C
30.09.2002 16:00 17.3 C 58 % 1024.3 hPa 0.0 l/m 3.2 km/h (1 Bft) O-SO 8.9 C 17.3 C
30.09.2002 17:00 16.8 C 58 % 1024.2 hPa 0.0 l/m 0.5 km/h (0 Bft) O-SO 8.5 C 16.8 C
30.09.2002 18:00 14.8 C 68 % 1024.2 hPa 0.0 l/m 0.0 km/h (0 Bft) N 8.8 C 14.8 C
30.09.2002 19:00 11.9 C 82 % 1024.2 hPa 0.0 l/m 1.4 km/h (1 Bft) O-SO 8.9 C 11.9 C
30.09.2002 20:00 9.6 C 91 % 1024.2 hPa 0.0 l/m 0.0 km/h (0 Bft) N 8.2 C 9.6 C
30.09.2002 21:00 7.9 C 96 % 1025.2 hPa 0.0 l/m 0.0 km/h (0 Bft) N 7.3 C 7.9 C
30.09.2002 22:00 6.7 C 98 % 1025.3 hPa 0.0 l/m 0.0 km/h (0 Bft) N 6.4 C 6.7 C
30.09.2002 23:00 6.1 C 99 % 1025.3 hPa 0.0 l/m 0.0 km/h (0 Bft) N 5.9 C 6.1 C
01.10.2002 00:00 5.5 C 100 % 1025.3 hPa 0.0 l/m 0.0 km/h (0 Bft) N 5.4 C 5.5 C
01.10.2002 01:00 4.8 C 100 % 1025.1 hPa 0.0 l/m 0.1 km/h (0 Bft) N 4.8 C 4.8 C
01.10.2002 02:00 4.5 C 100 % 1025.3 hPa 0.0 l/m 0.4 km/h (0 Bft) O-SO 4.5 C 4.5 C
01.10.2002 03:00 4.4 C 100 % 1025.3 hPa 0.0 l/m 0.3 km/h (0 Bft) O-SO 4.4 C 4.4 C
01.10.2002 04:00 4.8 C 100 % 1025.3 hPa 0.0 l/m 1.2 km/h (1 Bft) O-SO 4.8 C 4.8 C
01.10.2002 05:00 5.3 C 100 % 1025.3 hPa 0.0 l/m 0.0 km/h (0 Bft) N 5.3 C 5.3 C
01.10.2002 06:00 5.2 C 100 % 1025.3 hPa 0.0 l/m 0.7 km/h (0 Bft) O-SO 5.2 C 5.2 C
01.10.2002 07:00 5.4 C 100 % 1025.3 hPa 0.0 l/m 1.0 km/h (0 Bft) O-SO 5.4 C 5.4 C
01.10.2002 08:00 5.4 C 100 % 1025.3 hPa 0.0 l/m 0.2 km/h (0 Bft) W-NW 5.4 C 5.4 C
01.10.2002 09:00 6.0 C 100 % 1025.3 hPa 0.0 l/m 0.8 km/h (0 Bft) O-SO 6.0 C 5.9 C
01.10.2002 10:00 6.9 C 100 % 1025.3 hPa 0.0 l/m 2.8 km/h (1 Bft) O-SO 6.9 C 6.6 C
01.10.2002 11:00 8.7 C 95 % 1025.3 hPa 0.0 l/m 0.8 km/h (0 Bft) O-SO 7.9 C 8.6 C
01.10.2002 12:00 10.9 C 84 % 1024.6 hPa 0.0 l/m 2.1 km/h (1 Bft) NO 8.4 C 10.9 C
01.10.2002 13:00 12.6 C 79 % 1024.2 hPa 0.0 l/m 1.7 km/h (1 Bft) SW 9.0 C 12.6 C
01.10.2002 14:00 15.3 C 68 % 1023.2 hPa 0.0 l/m 0.7 km/h (0 Bft) W-NW 9.4 C 15.3 C
01.10.2002 15:00 17.0 C 64 % 1022.4 hPa 0.0 l/m 0.3 km/h (0 Bft) N 10.2 C 17.0 C
01.10.2002 16:00 17.5 C 67 % 1022.2 hPa 0.0 l/m 1.9 km/h (1 Bft) W-NW 11.3 C 17.5 C
01.10.2002 17:00 17.1 C 67 % 1022.2 hPa 0.0 l/m 0.6 km/h (0 Bft) W-NW 10.8 C 17.1 C
01.10.2002 18:00 14.6 C 67 % 1022.2 hPa 0.0 l/m 0.5 km/h (0 Bft) NO 8.6 C 14.6 C
01.10.2002 19:00 11.2 C 80 % 1022.2 hPa 0.0 l/m 3.5 km/h (1 Bft) O-SO 7.9 C 11.2 C
01.10.2002 20:00 9.0 C 92 % 1022.8 hPa 0.0 l/m 3.5 km/h (1 Bft) O-SO 7.8 C 8.8 C
01.10.2002 21:00 7.7 C 96 % 1023.2 hPa 0.0 l/m 2.0 km/h (1 Bft) O-SO 7.1 C 7.6 C
01.10.2002 22:00 6.9 C 98 % 1023.2 hPa 0.0 l/m 3.1 km/h (1 Bft) O-SO 6.6 C 6.7 C
01.10.2002 23:00 6.3 C 99 % 1023.2 hPa 0.0 l/m 1.5 km/h (1 Bft) O-SO 6.1 C 6.2 C
02.10.2002 00:00 5.9 C 99 % 1023.2 hPa 0.0 l/m 2.1 km/h (1 Bft) O-SO 5.8 C 5.7 C
02.10.2002 01:00 5.4 C 100 % 1023.2 hPa 0.0 l/m 0.0 km/h (0 Bft) N 5.4 C 5.4 C
02.10.2002 02:00 5.7 C 100 % 1023.2 hPa 0.0 l/m 3.3 km/h (1 Bft) O-SO 5.7 C 5.3 C
02.10.2002 03:00 5.2 C 100 % 1023.2 hPa 0.0 l/m 1.8 km/h (1 Bft) O-SO 5.2 C 5.2 C
02.10.2002 04:00 5.5 C 100 % 1023.6 hPa 0.0 l/m 1.6 km/h (1 Bft) O-SO 5.5 C 5.3 C
02.10.2002 05:00 6.2 C 100 % 1023.3 hPa 0.0 l/m 0.0 km/h (0 Bft) N 6.2 C 6.2 C
02.10.2002 06:00 6.1 C 100 % 1023.2 hPa 0.0 l/m 0.4 km/h (0 Bft) O-SO 6.1 C 6.1 C
02.10.2002 07:00 5.8 C 100 % 1023.2 hPa 0.0 l/m 2.4 km/h (1 Bft) O-SO 5.8 C 5.6 C
02.10.2002 08:00 6.1 C 100 % 1024.2 hPa 0.0 l/m 4.0 km/h (1 Bft) O-SO 6.1 C 5.6 C
02.10.2002 09:00 7.3 C 100 % 1024.2 hPa 0.0 l/m 0.2 km/h (0 Bft) N 7.3 C 7.3 C
02.10.2002 10:00 8.7 C 98 % 1024.2 hPa 0.0 l/m 1.7 km/h (1 Bft) O-SO 8.3 C 8.6 C
02.10.2002 11:00 10.1 C 89 % 1024.2 hPa 0.0 l/m 0.1 km/h (0 Bft) N 8.3 C 10.1 C
02.10.2002 12:00 11.2 C 85 % 1024.1 hPa 0.0 l/m 1.9 km/h (1 Bft) O-SO 8.8 C 11.2 C
02.10.2002 13:00 13.0 C 79 % 1023.3 hPa 0.0 l/m 0.6 km/h (0 Bft) NW 9.4 C 13.0 C
02.10.2002 14:00 15.2 C 71 % 1022.7 hPa 0.0 l/m 0.6 km/h (0 Bft) W-NW 9.9 C 15.2 C
02.10.2002 15:00 16.9 C 67 % 1022.2 hPa 0.0 l/m 0.7 km/h (0 Bft) W-NW 10.7 C 16.9 C
02.10.2002 16:00 17.7 C 67 % 1022.2 hPa 0.0 l/m 0.1 km/h (0 Bft) W-NW 11.5 C 17.7 C
02.10.2002 17:00 17.7 C 68 % 1022.2 hPa 0.0 l/m 0.0 km/h (0 Bft) N 11.7 C 17.7 C
02.10.2002 18:00 15.9 C 77 % 1022.2 hPa 0.0 l/m 0.0 km/h (0 Bft) N 11.9 C 15.9 C
02.10.2002 19:00 12.8 C 89 % 1022.2 hPa 0.0 l/m 0.0 km/h (0 Bft) N 11.1 C 12.8 C
02.10.2002 20:00 11.2 C 95 % 1022.4 hPa 0.0 l/m 0.0 km/h (0 Bft) N 10.4 C 11.2 C
02.10.2002 21:00 10.4 C 97 % 1023.2 hPa 0.0 l/m 0.0 km/h (0 Bft) N 9.9 C 10.4 C
02.10.2002 22:00 9.4 C 98 % 1023.2 hPa 0.0 l/m 0.0 km/h (0 Bft) N 9.1 C 9.4 C
02.10.2002 23:00 8.6 C 99 % 1023.8 hPa 0.0 l/m 0.0 km/h (0 Bft) N 8.5 C 8.6 C
03.10.2002 00:00 8.9 C 100 % 1024.0 hPa 0.0 l/m 0.0 km/h (0 Bft) N 8.9 C 8.9 C
03.10.2002 01:00 9.4 C 100 % 1023.9 hPa 0.0 l/m 0.0 km/h (0 Bft) N 9.4 C 9.4 C
03.10.2002 02:00 9.7 C 100 % 1024.2 hPa 0.0 l/m 0.0 km/h (0 Bft) N 9.7 C 9.7 C
03.10.2002 03:00 9.8 C 100 % 1024.2 hPa 0.0 l/m 0.0 km/h (0 Bft) N 9.8 C 9.8 C
03.10.2002 04:00 9.8 C 100 % 1024.2 hPa 0.0 l/m 0.0 km/h (0 Bft) N 9.8 C 9.8 C
03.10.2002 05:00 9.7 C 100 % 1024.2 hPa 0.0 l/m 0.0 km/h (0 Bft) N 9.7 C 9.7 C
03.10.2002 06:00 9.8 C 100 % 1024.2 hPa 0.0 l/m 0.0 km/h (0 Bft) N 9.8 C 9.8 C
03.10.2002 07:00 9.7 C 100 % 1024.2 hPa 0.0 l/m 0.0 km/h (0 Bft) N 9.7 C 9.7 C
03.10.2002 08:00 9.7 C 100 % 1025.0 hPa 0.0 l/m 0.1 km/h (0 Bft) N 9.7 C 9.7 C
03.10.2002 09:00 10.3 C 100 % 1025.3 hPa 0.0 l/m 0.1 km/h (0 Bft) NO 10.3 C 10.3 C
03.10.2002 10:00 11.2 C 99 % 1025.3 hPa 0.0 l/m 1.0 km/h (0 Bft) O 11.1 C 11.2 C
03.10.2002 11:00 12.7 C 88 % 1025.3 hPa 0.0 l/m 0.9 km/h (0 Bft) W-NW 10.8 C 12.7 C
03.10.2002 12:00 14.4 C 78 % 1025.0 hPa 0.0 l/m 1.1 km/h (0 Bft) W 10.7 C 14.4 C
03.10.2002 13:00 17.0 C 66 % 1024.0 hPa 0.0 l/m 3.3 km/h (1 Bft) O-SO 10.7 C 17.0 C
03.10.2002 14:00 19.0 C 42 % 1023.2 hPa 0.0 l/m 8.2 km/h (2 Bft) W-NW 5.8 C 19.0 C
03.10.2002 15:00 20.4 C 39 % 1022.3 hPa 0.0 l/m 6.0 km/h (2 Bft) W-NW 6.1 C 20.4 C
03.10.2002 16:00 20.9 C 43 % 1022.2 hPa 0.0 l/m 1.8 km/h (1 Bft) W-SW 7.7 C 20.9 C
03.10.2002 17:00 19.6 C 51 % 1022.2 hPa 0.0 l/m 0.8 km/h (0 Bft) O-SO 9.0 C 19.6 C
03.10.2002 18:00 17.5 C 59 % 1022.2 hPa 0.0 l/m 0.7 km/h (0 Bft) W 9.5 C 17.5 C
03.10.2002 19:00 14.8 C 75 % 1022.2 hPa 0.0 l/m 2.7 km/h (1 Bft) O-SO 10.3 C 14.8 C
03.10.2002 20:00 13.8 C 83 % 1022.6 hPa 0.0 l/m 1.7 km/h (1 Bft) O 11.0 C 13.8 C
03.10.2002 21:00 13.5 C 86 % 1023.2 hPa 0.0 l/m 0.9 km/h (0 Bft) O 11.1 C 13.5 C
03.10.2002 22:00 13.1 C 93 % 1023.2 hPa 1.2 l/m 1.6 km/h (1 Bft) O-SO 11.9 C 13.1 C
03.10.2002 23:00 12.8 C 99 % 1023.2 hPa 0.0 l/m 4.3 km/h (1 Bft) O-SO 12.6 C 12.8 C
04.10.2002 00:00 12.7 C 100 % 1023.2 hPa 0.0 l/m 0.0 km/h (0 Bft) N 12.6 C 12.7 C
04.10.2002 01:00 12.7 C 100 % 1023.2 hPa 0.6 l/m 0.0 km/h (0 Bft) N 12.7 C 12.7 C
04.10.2002 02:00 12.7 C 100 % 1023.2 hPa 2.4 l/m 0.0 km/h (0 Bft) N 12.7 C 12.7 C
04.10.2002 03:00 12.6 C 100 % 1023.2 hPa 0.3 l/m 0.0 km/h (0 Bft) N 12.6 C 12.6 C
04.10.2002 04:00 12.7 C 100 % 1022.8 hPa 0.0 l/m 0.0 km/h (0 Bft) N 12.7 C 12.7 C
04.10.2002 05:00 12.7 C 100 % 1022.2 hPa 0.0 l/m 0.0 km/h (0 Bft) N 12.7 C 12.7 C
04.10.2002 06:00 12.7 C 100 % 1022.4 hPa 0.3 l/m 0.0 km/h (0 Bft) N 12.7 C 12.7 C
04.10.2002 07:00 12.7 C 100 % 1022.8 hPa 0.3 l/m 0.0 km/h (0 Bft) N 12.7 C 12.7 C
04.10.2002 08:00 12.8 C 100 % 1023.2 hPa 0.3 l/m 0.0 km/h (0 Bft) N 12.8 C 12.8 C
04.10.2002 09:00 13.1 C 100 % 1023.2 hPa 0.0 l/m 0.0 km/h (0 Bft) N 13.1 C 13.1 C
04.10.2002 10:00 13.4 C 100 % 1023.2 hPa 0.0 l/m 0.0 km/h (0 Bft) N 13.4 C 13.4 C
04.10.2002 11:00 13.9 C 98 % 1023.2 hPa 0.0 l/m 0.1 km/h (0 Bft) N 13.6 C 13.9 C
04.10.2002 12:00 14.0 C 97 % 1023.2 hPa 0.0 l/m 0.2 km/h (0 Bft) N 13.5 C 14.0 C
04.10.2002 13:00 15.0 C 93 % 1023.2 hPa 0.0 l/m 0.2 km/h (0 Bft) S 13.8 C 15.0 C
04.10.2002 14:00 15.2 C 92 % 1023.2 hPa 0.0 l/m 0.6 km/h (0 Bft) O-SO 13.8 C 15.2 C
04.10.2002 15:00 15.2 C 92 % 1022.6 hPa 0.0 l/m 0.9 km/h (0 Bft) O-SO 13.9 C 15.2 C
04.10.2002 16:00 14.9 C 95 % 1022.2 hPa 0.0 l/m 0.1 km/h (0 Bft) N 14.1 C 14.9 C
04.10.2002 17:00 14.3 C 96 % 1023.1 hPa 5.1 l/m 3.3 km/h (1 Bft) O-SO 13.6 C 14.3 C
04.10.2002 18:00 11.1 C 96 % 1023.8 hPa 7.2 l/m 4.1 km/h (1 Bft) O-NO 10.5 C 11.1 C
04.10.2002 19:00 10.6 C 98 % 1024.5 hPa 1.8 l/m 3.5 km/h (1 Bft) O 10.3 C 10.6 C
04.10.2002 20:00 10.0 C 98 % 1025.3 hPa 0.0 l/m 1.8 km/h (1 Bft) O 9.7 C 10.0 C
04.10.2002 21:00 9.6 C 100 % 1026.3 hPa 0.3 l/m 0.3 km/h (0 Bft) O-SO 9.5 C 9.6 C
04.10.2002 22:00 9.4 C 98 % 1026.3 hPa 0.0 l/m 0.2 km/h (0 Bft) N 9.1 C 9.4 C
04.10.2002 23:00 9.4 C 99 % 1026.3 hPa 0.0 l/m 0.0 km/h (0 Bft) N 9.2 C 9.4 C
05.10.2002 00:00 9.4 C 100 % 1026.3 hPa 0.0 l/m 0.0 km/h (0 Bft) N 9.4 C 9.4 C
05.10.2002 01:00 8.4 C 99 % 1026.3 hPa 0.0 l/m 0.0 km/h (0 Bft) N 8.3 C 8.4 C
05.10.2002 02:00 7.2 C 100 % 1026.3 hPa 0.0 l/m 0.0 km/h (0 Bft) N 7.1 C 7.2 C
05.10.2002 03:00 7.0 C 100 % 1026.3 hPa 0.0 l/m 0.0 km/h (0 Bft) N 7.0 C 7.0 C
05.10.2002 04:00 7.1 C 100 % 1026.1 hPa 0.0 l/m 0.0 km/h (0 Bft) N 7.1 C 7.1 C
05.10.2002 05:00 6.6 C 100 % 1025.8 hPa 0.0 l/m 0.5 km/h (0 Bft) W-NW 6.6 C 6.6 C
05.10.2002 06:00 6.4 C 100 % 1025.3 hPa 0.0 l/m 0.0 km/h (0 Bft) N 6.4 C 6.4 C
05.10.2002 07:00 6.4 C 100 % 1025.3 hPa 0.0 l/m 0.0 km/h (0 Bft) N 6.4 C 6.4 C
05.10.2002 08:00 6.6 C 100 % 1025.3 hPa 0.0 l/m 0.4 km/h (0 Bft) W-NW 6.6 C 6.6 C
05.10.2002 09:00 7.3 C 100 % 1025.6 hPa 0.0 l/m 0.2 km/h (0 Bft) N 7.3 C 7.3 C
05.10.2002 10:00 8.3 C 96 % 1025.9 hPa 0.0 l/m 0.5 km/h (0 Bft) W-NW 7.7 C 8.3 C
05.10.2002 11:00 9.5 C 89 % 1025.3 hPa 0.0 l/m 1.4 km/h (1 Bft) W-NW 7.8 C 9.4 C
05.10.2002 12:00 11.4 C 81 % 1024.9 hPa 0.0 l/m 0.7 km/h (0 Bft) W 8.3 C 11.4 C
05.10.2002 13:00 13.3 C 71 % 1024.1 hPa 0.0 l/m 2.1 km/h (1 Bft) W-NW 8.3 C 13.3 C
05.10.2002 14:00 14.9 C 61 % 1023.2 hPa 0.0 l/m 1.4 km/h (1 Bft) W-NW 7.4 C 14.9 C
05.10.2002 15:00 15.5 C 59 % 1022.6 hPa 0.0 l/m 1.6 km/h (1 Bft) W-NW 7.6 C 15.5 C
05.10.2002 16:00 14.9 C 57 % 1022.2 hPa 0.0 l/m 5.1 km/h (1 Bft) W-NW 6.6 C 14.9 C
05.10.2002 17:00 14.3 C 61 % 1021.2 hPa 0.0 l/m 2.6 km/h (1 Bft) W-NW 6.9 C 14.3 C
05.10.2002 18:00 12.9 C 70 % 1021.1 hPa 0.0 l/m 0.2 km/h (0 Bft) N 7.5 C 12.9 C
05.10.2002 19:00 11.6 C 74 % 1021.1 hPa 0.0 l/m 0.3 km/h (0 Bft) O-SO 7.1 C 11.6 C
05.10.2002 20:00 11.4 C 76 % 1021.1 hPa 0.0 l/m 1.6 km/h (1 Bft) O-SO 7.2 C 11.4 C
05.10.2002 21:00 11.0 C 82 % 1021.1 hPa 0.0 l/m 0.1 km/h (0 Bft) N 8.0 C 11.0 C
05.10.2002 22:00 11.4 C 78 % 1020.5 hPa 0.0 l/m 0.3 km/h (0 Bft) W-SW 7.7 C 11.4 C
05.10.2002 23:00 11.0 C 82 % 1019.7 hPa 0.0 l/m 0.3 km/h (0 Bft) O-SO 8.0 C 11.0 C
06.10.2002 00:00 10.6 C 87 % 1019.0 hPa 0.0 l/m 0.1 km/h (0 Bft) N 8.5 C 10.6 C
06.10.2002 01:00 10.7 C 80 % 1018.2 hPa 0.0 l/m 1.3 km/h (1 Bft) W-SW 7.4 C 10.7 C
06.10.2002 02:00 10.5 C 79 % 1018.0 hPa 0.0 l/m 0.4 km/h (0 Bft) O-SO 7.1 C 10.5 C
06.10.2002 03:00 10.2 C 85 % 1017.0 hPa 0.0 l/m 0.4 km/h (0 Bft) O-SO 7.7 C 10.2 C
06.10.2002 04:00 9.8 C 88 % 1016.2 hPa 0.3 l/m 3.5 km/h (1 Bft) SO 7.9 C 9.4 C
06.10.2002 05:00 9.5 C 94 % 1015.8 hPa 0.3 l/m 5.5 km/h (1 Bft) SO 8.5 C 8.8 C
06.10.2002 06:00 9.3 C 97 % 1014.9 hPa 0.6 l/m 2.5 km/h (1 Bft) O-SO 8.8 C 9.1 C
06.10.2002 07:00 9.2 C 98 % 1014.0 hPa 0.6 l/m 0.9 km/h (0 Bft) SO 8.9 C 9.2 C
06.10.2002 08:00 9.2 C 99 % 1013.7 hPa 0.6 l/m 4.3 km/h (1 Bft) O-SO 9.0 C 8.7 C
06.10.2002 09:00 9.1 C 99 % 1012.8 hPa 1.8 l/m 2.4 km/h (1 Bft) O-SO 9.0 C 9.0 C
06.10.2002 10:00 9.2 C 99 % 1012.7 hPa 2.4 l/m 1.9 km/h (1 Bft) SO 9.1 C 9.1 C
06.10.2002 11:00 9.4 C 100 % 1011.8 hPa 2.4 l/m 0.5 km/h (0 Bft) O-SO 9.3 C 9.4 C
06.10.2002 12:00 9.7 C 100 % 1011.8 hPa 0.0 l/m 1.7 km/h (1 Bft) SO 9.7 C 9.6 C
06.10.2002 13:00 10.0 C 100 % 1011.8 hPa 0.0 l/m 0.9 km/h (0 Bft) SO 10.0 C 10.0 C
06.10.2002 14:00 10.8 C 97 % 1011.0 hPa 0.3 l/m 9.3 km/h (2 Bft) W-NW 10.3 C 10.8 C
06.10.2002 15:00 11.1 C 92 % 1011.0 hPa 0.0 l/m 11.3 km/h (2 Bft) NW 10.0 C 11.1 C
06.10.2002 16:00 10.8 C 93 % 1010.9 hPa 0.0 l/m 4.1 km/h (1 Bft) W 9.6 C 10.8 C
06.10.2002 17:00 10.4 C 94 % 1011.6 hPa 0.3 l/m 1.5 km/h (1 Bft) O-SO 9.5 C 10.4 C
06.10.2002 18:00 10.4 C 95 % 1011.8 hPa 0.0 l/m 2.8 km/h (1 Bft) O-SO 9.6 C 10.4 C
06.10.2002 19:00 10.1 C 97 % 1012.7 hPa 0.3 l/m 4.6 km/h (1 Bft) O-SO 9.6 C 10.1 C
06.10.2002 20:00 10.1 C 97 % 1012.8 hPa 0.0 l/m 6.7 km/h (2 Bft) SO 9.6 C 10.1 C
06.10.2002 21:00 10.2 C 97 % 1013.4 hPa 1.2 l/m 2.5 km/h (1 Bft) O-SO 9.7 C 10.2 C
06.10.2002 22:00 10.1 C 99 % 1013.9 hPa 0.6 l/m 2.8 km/h (1 Bft) O-SO 10.0 C 9.9 C
06.10.2002 23:00 9.9 C 100 % 1013.9 hPa 0.0 l/m 0.0 km/h (0 Bft) N 9.9 C 9.9 C
Min-Datum _ 30.09.02 03.10.02 06.10.02 - 30.09.02 - 30.09.02 30.09.02
_ Min-Zeit 06:47 15:47 14:14 - 00:02 - 06:47 06:11
Minimum _ 0.5 C 36 % 1010.8 hPa - 0.0 km/h (0 Bft) - 0.5 C -1.7 C
Max-Datum _ 03.10.02 30.09.02 30.09.02 04.10.02 06.10.02 - 04.10.02 03.10.02
_ Max-Zeit 16:14 02:38 08:14 17:00 14:11 - 17:42 16:14
Maximum _ 21.2 C 100 % 1028.4 hPa 7.2 l/m 20.2 km/h
W-NW (4 Bft)
- 14.3 C 21.2 C
Durchschnitt _ 10.4 C 90 % 1022.6 hPa #31.5 l/m 1.3 km/h (1 Bft) O-SO 8.4 C 10.3 C

Durchschnitt Minimum Temp.9.7 C
Durchschnitt Maximum Temp.11.0 C
© Kaiko 2002